createdAt,value
2023-02-08T00:01:24.987Z,25.50
2023-02-08T00:03:53.771Z,24.90
2023-02-08T00:06:22.299Z,25.60
2023-02-08T00:08:52.098Z,21.20
2023-02-08T00:11:20.466Z,22.40
2023-02-08T00:13:48.813Z,25.30
2023-02-08T00:16:18.539Z,24.23
2023-02-08T00:18:47.008Z,23.97
2023-02-08T00:21:19.979Z,22.27
2023-02-08T00:23:49.628Z,22.57
2023-02-08T00:26:20.302Z,29.00
2023-02-08T00:28:48.985Z,23.17
2023-02-08T00:31:19.440Z,24.70
2023-02-08T00:33:47.954Z,28.57
2023-02-08T00:36:16.328Z,23.80
2023-02-08T00:38:44.816Z,26.77
2023-02-08T00:41:13.315Z,25.93
2023-02-08T00:43:43.080Z,27.43
2023-02-08T00:46:11.631Z,25.37
2023-02-08T00:48:40.015Z,23.93
2023-02-08T00:51:11.957Z,30.50
2023-02-08T00:53:41.696Z,25.63
2023-02-08T00:56:11.528Z,28.73
2023-02-08T00:58:40.319Z,23.67
2023-02-08T01:01:11.124Z,23.33
2023-02-08T01:03:42.104Z,19.43
2023-02-08T01:06:12.503Z,19.13
2023-02-08T01:08:41.133Z,18.37
2023-02-08T01:11:11.424Z,19.83
2023-02-08T01:13:40.228Z,21.33
2023-02-08T01:16:14.062Z,23.40
2023-02-08T01:18:44.581Z,22.03
2023-02-08T01:21:14.833Z,23.73
2023-02-08T01:23:44.299Z,19.17
2023-02-08T01:26:13.504Z,17.70
2023-02-08T01:28:42.864Z,16.10
2023-02-08T01:31:14.968Z,21.97
2023-02-08T01:33:43.572Z,17.23
2023-02-08T01:36:12.762Z,21.33
2023-02-08T01:38:44.209Z,17.87
2023-02-08T01:41:16.672Z,19.60
2023-02-08T01:44:04.810Z,17.13
2023-02-08T01:46:36.357Z,18.83
2023-02-08T01:49:12.114Z,19.30
2023-02-08T01:51:44.030Z,17.73
2023-02-08T01:54:15.208Z,20.17
2023-02-08T01:56:46.804Z,15.27
2023-02-08T01:59:21.904Z,16.73
2023-02-08T02:01:54.853Z,16.40
2023-02-08T02:04:23.925Z,17.50
2023-02-08T02:06:56.117Z,14.63
2023-02-08T02:09:34.746Z,17.60
2023-02-08T02:12:03.583Z,14.30
2023-02-08T02:14:32.340Z,14.40
2023-02-08T02:17:02.706Z,12.13
2023-02-08T02:19:38.740Z,9.57
2023-02-08T02:22:25.270Z,5.93
2023-02-08T02:25:24.182Z,5.17
2023-02-08T02:28:15.400Z,4.50
2023-02-08T02:31:13.117Z,3.47
2023-02-08T02:33:58.870Z,4.80
2023-02-08T02:36:34.568Z,3.37
2023-02-08T02:39:17.589Z,3.90
2023-02-08T02:42:12.581Z,3.37
2023-02-08T02:44:51.929Z,3.90
2023-02-08T02:47:28.797Z,4.77
2023-02-08T02:50:05.168Z,4.23
2023-02-08T02:52:38.466Z,4.50
2023-02-08T02:55:11.138Z,4.97
2023-02-08T02:57:40.792Z,4.93
2023-02-08T03:00:11.432Z,4.30
2023-02-08T03:02:39.902Z,2.60
2023-02-08T03:05:13.515Z,4.07
2023-02-08T03:07:57.539Z,3.20
2023-02-08T03:10:42.659Z,3.93
2023-02-08T03:13:19.360Z,3.40
2023-02-08T03:15:56.490Z,2.10
2023-02-08T03:18:36.396Z,3.80
2023-02-08T03:21:13.099Z,5.23
2023-02-08T03:23:47.603Z,3.13
2023-02-08T03:26:21.592Z,3.40
2023-02-08T03:28:56.839Z,3.77
2023-02-08T03:31:31.779Z,3.87
2023-02-08T03:34:07.079Z,3.80
2023-02-08T03:36:43.833Z,3.23
2023-02-08T03:39:17.245Z,4.03
2023-02-08T03:41:52.825Z,5.03
2023-02-08T03:44:26.572Z,3.43
2023-02-08T03:46:58.969Z,5.27
2023-02-08T03:49:32.180Z,3.60
2023-02-08T03:52:04.832Z,6.60
2023-02-08T03:54:39.629Z,3.73
2023-02-08T03:57:14.111Z,4.07
2023-02-08T03:59:45.268Z,2.93
2023-02-08T04:02:18.133Z,4.80
2023-02-08T04:04:49.104Z,2.90
2023-02-08T04:07:20.092Z,3.20
2023-02-08T04:09:48.517Z,4.50
2023-02-08T04:12:16.835Z,3.47
2023-02-08T04:14:45.175Z,4.07
2023-02-08T04:17:13.532Z,3.73
2023-02-08T04:19:42.081Z,2.63
2023-02-08T04:22:10.383Z,2.60
2023-02-08T04:24:41.087Z,2.97
2023-02-08T04:27:09.474Z,3.20
2023-02-08T04:29:37.811Z,2.80
2023-02-08T04:32:11.571Z,2.83
2023-02-08T04:34:40.386Z,4.30
2023-02-08T04:37:09.772Z,4.13
2023-02-08T04:39:39.889Z,3.63
2023-02-08T04:42:08.265Z,3.97
2023-02-08T04:44:36.613Z,3.80
2023-02-08T04:47:05.196Z,3.90
2023-02-08T04:49:33.601Z,7.73
2023-02-08T04:52:01.967Z,9.87
2023-02-08T04:54:31.224Z,4.83
2023-02-08T04:57:00.930Z,5.90
2023-02-08T04:59:29.442Z,9.97
2023-02-08T05:01:57.829Z,12.83
2023-02-08T05:04:26.159Z,9.77
2023-02-08T05:06:54.485Z,14.17
2023-02-08T05:09:23.504Z,11.33
2023-02-08T05:11:51.933Z,15.57
2023-02-08T05:14:21.696Z,9.47
2023-02-08T05:16:50.062Z,16.47
2023-02-08T05:19:18.437Z,9.10
2023-02-08T05:21:46.722Z,12.60
2023-02-08T05:24:15.052Z,9.33
2023-02-08T05:26:43.385Z,12.83
2023-02-08T05:29:11.898Z,10.77
2023-02-08T05:31:41.645Z,10.83
2023-02-08T05:34:10.026Z,12.47
2023-02-08T05:36:38.347Z,13.03
2023-02-08T05:39:06.720Z,16.37
2023-02-08T05:41:35.131Z,10.23
2023-02-08T05:44:03.466Z,9.47
2023-02-08T05:46:31.984Z,11.17
2023-02-08T05:49:01.730Z,18.47
2023-02-08T05:51:30.027Z,12.40
2023-02-08T05:53:58.367Z,10.73
2023-02-08T05:56:27.620Z,13.70
2023-02-08T05:58:56.278Z,12.33
2023-02-08T06:01:24.654Z,13.70
2023-02-08T06:03:53.084Z,7.17
2023-02-08T06:06:22.900Z,5.83
2023-02-08T06:08:51.244Z,2.10
2023-02-08T06:11:20.116Z,3.80
2023-02-08T06:13:49.070Z,4.57
2023-02-08T06:16:19.969Z,4.77
2023-02-08T06:18:48.543Z,3.10
2023-02-08T06:21:16.924Z,6.63
2023-02-08T06:23:46.904Z,5.57
2023-02-08T06:26:15.264Z,4.27
2023-02-08T06:28:43.673Z,4.63
2023-02-08T06:31:12.070Z,2.43
2023-02-08T06:33:40.553Z,8.67
2023-02-08T06:36:09.430Z,3.37
2023-02-08T06:38:37.784Z,3.90
2023-02-08T06:41:07.544Z,2.87
2023-02-08T06:43:35.931Z,3.13
2023-02-08T06:46:05.084Z,3.23
2023-02-08T06:48:35.200Z,2.77
2023-02-08T06:51:03.661Z,4.83
2023-02-08T06:53:32.020Z,5.37
2023-02-08T06:56:00.381Z,3.53
2023-02-08T06:58:31.362Z,3.40
2023-02-08T07:00:59.774Z,6.90
2023-02-08T07:03:28.226Z,5.20
2023-02-08T07:06:05.050Z,5.50
2023-02-08T07:08:34.545Z,7.43
2023-02-08T07:11:08.206Z,11.93
2023-02-08T07:13:38.831Z,19.10
2023-02-08T07:16:08.446Z,29.00
2023-02-08T07:18:38.106Z,21.70
2023-02-08T07:21:07.365Z,20.23
2023-02-08T07:23:37.499Z,18.80
2023-02-08T07:26:07.920Z,21.27
2023-02-08T07:28:40.325Z,19.63
2023-02-08T07:31:09.856Z,21.80
2023-02-08T07:33:38.659Z,29.67
2023-02-08T07:36:08.181Z,21.80
2023-02-08T07:38:37.367Z,23.80
2023-02-08T07:41:07.851Z,23.40
2023-02-08T07:43:38.920Z,26.23
2023-02-08T07:46:08.968Z,26.93
2023-02-08T07:48:40.149Z,20.50
2023-02-08T07:51:10.278Z,19.30
2023-02-08T07:53:39.224Z,21.77
2023-02-08T07:56:08.114Z,22.43
2023-02-08T07:58:37.871Z,23.03
2023-02-08T08:01:20.059Z,27.17
2023-02-08T08:03:51.712Z,20.83
2023-02-08T08:06:20.536Z,24.63
2023-02-08T08:08:49.765Z,29.87
2023-02-08T08:11:19.166Z,26.77
2023-02-08T08:13:48.953Z,26.00
2023-02-08T08:16:17.721Z,27.63
2023-02-08T08:18:46.340Z,29.73
2023-02-08T08:21:16.858Z,27.50
2023-02-08T08:23:45.427Z,36.23
2023-02-08T08:26:16.267Z,36.97
2023-02-08T08:28:46.794Z,29.17
2023-02-08T08:31:18.733Z,33.23
2023-02-08T08:33:47.587Z,30.60
2023-02-08T08:36:16.436Z,35.70
2023-02-08T08:38:44.851Z,31.83
2023-02-08T08:41:15.484Z,31.53
2023-02-08T08:43:44.109Z,33.57
2023-02-08T08:46:12.602Z,25.57
2023-02-08T08:48:42.425Z,29.73
2023-02-08T08:51:10.802Z,22.83
2023-02-08T08:53:39.203Z,25.07
2023-02-08T08:56:08.475Z,21.57
2023-02-08T08:58:36.851Z,29.10
2023-02-08T09:01:05.259Z,26.03
2023-02-08T09:03:33.735Z,25.70
2023-02-08T09:06:03.523Z,25.50
2023-02-08T09:08:31.838Z,25.27
2023-02-08T09:11:06.703Z,29.33
2023-02-08T09:13:35.499Z,18.00
2023-02-08T09:16:09.546Z,18.37
2023-02-08T09:18:38.229Z,20.00
2023-02-08T09:21:12.478Z,16.83
2023-02-08T09:23:41.014Z,19.60
2023-02-08T09:26:11.463Z,26.80
2023-02-08T09:28:40.090Z,16.00
2023-02-08T09:31:12.437Z,13.93
2023-02-08T09:33:41.143Z,16.63
2023-02-08T09:36:11.663Z,10.07
2023-02-08T09:38:40.732Z,13.23
2023-02-08T09:41:20.748Z,10.70
2023-02-08T09:44:00.704Z,10.80
2023-02-08T09:46:31.596Z,10.33
2023-02-08T09:49:03.053Z,9.83
2023-02-08T09:51:38.596Z,9.67
2023-02-08T09:54:09.921Z,11.07
2023-02-08T09:56:41.938Z,11.37
2023-02-08T09:59:16.443Z,12.27
2023-02-08T10:01:46.571Z,9.87
2023-02-08T10:04:25.265Z,13.17
2023-02-08T10:06:55.383Z,8.93
2023-02-08T10:09:27.149Z,5.93
2023-02-08T10:12:07.645Z,11.33
2023-02-08T10:14:48.003Z,8.40
2023-02-08T10:17:34.075Z,6.93
2023-02-08T10:20:14.025Z,11.33
2023-02-08T10:22:52.776Z,6.33
2023-02-08T10:25:32.565Z,5.43
2023-02-08T10:28:19.866Z,5.70
2023-02-08T10:30:57.445Z,5.17
2023-02-08T10:33:33.668Z,3.57
2023-02-08T10:36:05.200Z,12.57
2023-02-08T10:38:46.306Z,5.13
2023-02-08T10:41:24.882Z,5.37
2023-02-08T10:44:00.196Z,9.10
2023-02-08T10:46:45.535Z,5.20
2023-02-08T10:49:22.583Z,8.00
2023-02-08T10:51:51.546Z,3.93
2023-02-08T10:54:21.450Z,6.10
2023-02-08T10:56:57.791Z,3.77
2023-02-08T10:59:29.557Z,6.80
2023-02-08T11:01:59.370Z,4.47
2023-02-08T11:04:28.292Z,6.77
2023-02-08T11:09:42.902Z,7.97
2023-02-08T11:12:23.392Z,7.83
2023-02-08T11:14:56.398Z,9.70
2023-02-08T11:17:32.062Z,10.17
2023-02-08T11:20:02.777Z,4.80
2023-02-08T11:22:37.643Z,7.33
2023-02-08T11:25:14.927Z,5.83
2023-02-08T11:27:50.166Z,5.43
2023-02-08T11:30:30.845Z,5.30
2023-02-08T11:36:11.642Z,5.97
2023-02-08T11:38:45.819Z,8.63
2023-02-08T11:44:08.698Z,9.47
2023-02-08T11:46:41.776Z,10.40
2023-02-08T11:49:24.746Z,4.53
2023-02-08T11:51:54.118Z,5.53
2023-02-08T11:54:41.442Z,5.33
2023-02-08T11:57:19.293Z,4.80
2023-02-08T11:59:48.044Z,3.97
2023-02-08T12:02:35.931Z,4.43
2023-02-08T12:05:07.837Z,8.57
2023-02-08T12:07:48.058Z,6.90
2023-02-08T12:10:25.653Z,7.10
2023-02-08T12:13:12.338Z,6.53
2023-02-08T12:15:58.546Z,11.17
2023-02-08T12:18:48.222Z,7.20
2023-02-08T12:21:21.739Z,4.07
2023-02-08T12:23:54.536Z,7.77
2023-02-08T12:26:43.984Z,11.27
2023-02-08T12:29:46.858Z,6.77
2023-02-08T12:32:42.606Z,6.53
2023-02-08T12:35:54.021Z,4.53
2023-02-08T12:39:17.934Z,3.90
2023-02-08T12:42:01.461Z,4.50
2023-02-08T12:44:40.385Z,12.83
2023-02-08T12:47:21.957Z,13.77
2023-02-08T12:50:04.121Z,12.13
2023-02-08T12:52:39.068Z,8.60
2023-02-08T12:55:18.680Z,11.43
2023-02-08T12:57:53.082Z,8.50
2023-02-08T13:00:26.737Z,6.70
2023-02-08T13:03:04.465Z,6.83
2023-02-08T13:05:39.144Z,7.73
2023-02-08T13:08:18.387Z,11.33
2023-02-08T13:10:54.187Z,8.97
2023-02-08T13:13:25.971Z,6.20
2023-02-08T13:15:59.569Z,4.57
2023-02-08T13:18:32.616Z,5.47
2023-02-08T13:21:04.931Z,5.97
2023-02-08T13:23:50.578Z,6.30
2023-02-08T13:26:26.419Z,10.87
2023-02-08T13:28:58.865Z,8.93
2023-02-08T13:31:33.559Z,7.00
2023-02-08T13:34:08.454Z,7.17
2023-02-08T13:36:38.946Z,6.50
2023-02-08T13:39:09.947Z,7.13
2023-02-08T13:41:38.589Z,6.40
2023-02-08T13:44:10.333Z,9.73
2023-02-08T13:46:46.826Z,6.50
2023-02-08T13:49:43.343Z,6.53
2023-02-08T13:52:12.653Z,6.37
2023-02-08T13:54:41.146Z,7.50
2023-02-08T13:57:43.378Z,6.63
2023-02-08T14:00:24.627Z,7.60
2023-02-08T14:03:02.612Z,7.00
2023-02-08T14:05:48.242Z,5.70
2023-02-08T14:08:25.053Z,4.50
2023-02-08T14:11:08.275Z,13.17
2023-02-08T14:13:41.553Z,5.80
2023-02-08T14:16:33.943Z,5.43
2023-02-08T14:19:05.607Z,5.90
2023-02-08T14:21:39.195Z,4.90
2023-02-08T14:24:09.956Z,7.03
2023-02-08T14:26:38.562Z,5.80
2023-02-08T14:29:08.207Z,5.97
2023-02-08T14:31:39.907Z,6.77
2023-02-08T14:34:24.176Z,6.10
2023-02-08T14:37:02.258Z,6.50
2023-02-08T14:39:34.647Z,7.23
2023-02-08T14:42:08.781Z,5.80
2023-02-08T14:45:05.816Z,5.30
2023-02-08T14:48:17.576Z,6.50
2023-02-08T14:50:58.137Z,5.90
2023-02-08T14:53:35.654Z,10.43
2023-02-08T14:56:08.827Z,6.47
2023-02-08T14:58:42.553Z,6.63
2023-02-08T15:01:18.542Z,8.77
2023-02-08T15:03:49.658Z,9.10
2023-02-08T15:06:53.843Z,6.33
2023-02-08T15:09:25.096Z,7.30
2023-02-08T15:12:02.777Z,9.07
2023-02-08T15:14:34.425Z,7.90
2023-02-08T15:17:03.450Z,10.70
2023-02-08T15:19:35.338Z,9.33
2023-02-08T15:22:32.578Z,6.57
2023-02-08T15:25:02.913Z,6.53
2023-02-08T15:27:33.558Z,8.13
2023-02-08T15:30:02.475Z,7.30
2023-02-08T15:32:31.457Z,9.53
2023-02-08T15:35:02.980Z,6.00
2023-02-08T15:37:35.402Z,9.43
2023-02-08T15:40:04.755Z,9.23
2023-02-08T15:42:35.510Z,6.33
2023-02-08T15:45:04.682Z,6.30
2023-02-08T15:47:36.013Z,8.60
2023-02-08T15:50:06.452Z,6.57
2023-02-08T15:52:38.398Z,11.57
2023-02-08T15:55:09.051Z,7.27
2023-02-08T15:57:44.178Z,8.03
2023-02-08T16:00:17.535Z,13.50
2023-02-08T16:02:51.703Z,7.43
2023-02-08T16:05:24.269Z,7.03
2023-02-08T16:07:54.986Z,14.07
2023-02-08T16:10:30.178Z,6.80
2023-02-08T16:13:01.088Z,9.27
2023-02-08T16:15:39.071Z,7.30
2023-02-08T16:18:07.798Z,7.07
2023-02-08T16:20:37.305Z,11.90
2023-02-08T16:23:27.386Z,16.70
2023-02-08T16:25:56.494Z,8.40
2023-02-08T16:28:30.422Z,6.20
2023-02-08T16:31:01.055Z,7.47
2023-02-08T16:33:31.396Z,7.43
2023-02-08T16:36:02.735Z,5.43
2023-02-08T16:38:35.066Z,7.07
2023-02-08T16:41:13.167Z,8.13
2023-02-08T16:43:44.835Z,6.70
2023-02-08T16:46:24.557Z,8.40
2023-02-08T16:48:55.434Z,7.13
2023-02-08T16:51:26.537Z,8.60
2023-02-08T16:54:02.561Z,10.53
2023-02-08T16:56:31.145Z,9.07
2023-02-08T16:58:59.463Z,9.00
2023-02-08T17:01:28.659Z,16.37
2023-02-08T17:03:57.207Z,8.07
2023-02-08T17:06:30.548Z,8.73
2023-02-08T17:09:01.536Z,18.50
2023-02-08T17:11:30.502Z,6.17
2023-02-08T17:13:59.587Z,8.73
2023-02-08T17:16:31.152Z,9.83
2023-02-08T17:19:01.130Z,8.63
2023-02-08T17:21:30.379Z,17.17
2023-02-08T17:24:01.645Z,15.80
2023-02-08T17:26:33.662Z,19.57
2023-02-08T17:29:02.061Z,9.73
2023-02-08T17:31:31.117Z,7.60
2023-02-08T17:34:04.510Z,9.13
2023-02-08T17:36:34.040Z,10.27
2023-02-08T17:39:05.345Z,14.23
2023-02-08T17:41:33.913Z,7.20
2023-02-08T17:44:02.354Z,6.60
2023-02-08T17:46:31.734Z,5.40
2023-02-08T17:49:01.890Z,33.53
2023-02-08T17:51:32.121Z,9.60
2023-02-08T17:54:00.656Z,7.00
2023-02-08T17:56:31.787Z,9.23
2023-02-08T17:59:01.030Z,5.70
2023-02-08T18:01:29.510Z,4.40
2023-02-08T18:03:58.284Z,6.13
2023-02-08T18:06:27.069Z,5.57
2023-02-08T18:08:58.212Z,6.07
2023-02-08T18:11:27.437Z,8.73
2023-02-08T18:13:57.131Z,8.80
2023-02-08T18:16:28.583Z,7.43
2023-02-08T18:18:57.653Z,7.03
2023-02-08T18:21:26.695Z,8.23
2023-02-08T18:23:56.178Z,6.40
2023-02-08T18:26:26.459Z,6.27
2023-02-08T18:28:56.276Z,11.20
2023-02-08T18:31:25.473Z,6.77
2023-02-08T18:33:54.026Z,9.13
2023-02-08T18:36:24.307Z,7.57
2023-02-08T18:38:55.873Z,10.33
2023-02-08T18:41:26.774Z,5.07
2023-02-08T18:43:58.305Z,13.23
2023-02-08T18:46:28.380Z,5.13
2023-02-08T18:48:56.923Z,4.70
2023-02-08T18:51:27.743Z,5.70
2023-02-08T18:53:57.310Z,5.47
2023-02-08T18:56:28.102Z,7.23
2023-02-08T18:59:00.740Z,6.13
2023-02-08T19:01:29.310Z,4.80
2023-02-08T19:03:58.601Z,5.17
2023-02-08T19:06:29.026Z,7.37
2023-02-08T19:08:59.684Z,6.60
2023-02-08T19:11:30.034Z,5.40
2023-02-08T19:14:01.884Z,5.77
2023-02-08T19:16:31.558Z,4.77
2023-02-08T19:19:01.211Z,9.37
2023-02-08T19:21:31.150Z,7.67
2023-02-08T19:24:00.698Z,4.30
2023-02-08T19:26:32.746Z,4.87
2023-02-08T19:29:06.753Z,6.40
2023-02-08T19:31:36.023Z,5.80
2023-02-08T19:34:05.246Z,5.27
2023-02-08T19:36:36.262Z,5.73
2023-02-08T19:39:06.619Z,6.17
2023-02-08T19:41:37.581Z,9.77
2023-02-08T19:44:10.045Z,8.50
2023-02-08T19:46:39.811Z,7.20
2023-02-08T19:49:08.576Z,8.30
2023-02-08T19:51:37.251Z,9.10
2023-02-08T19:54:07.332Z,9.37
2023-02-08T19:56:36.410Z,6.13
2023-02-08T19:59:07.839Z,8.43
2023-02-08T20:01:36.530Z,9.17
2023-02-08T20:04:05.898Z,11.87
2023-02-08T20:06:36.224Z,8.90
2023-02-08T20:09:06.653Z,8.20
2023-02-08T20:11:38.673Z,7.03
2023-02-08T20:14:15.206Z,7.33
2023-02-08T20:16:43.730Z,8.50
2023-02-08T20:19:13.292Z,6.43
2023-02-08T20:21:44.480Z,8.70
2023-02-08T20:24:14.476Z,7.87
2023-02-08T20:26:44.500Z,7.80
2023-02-08T20:29:17.567Z,9.07
2023-02-08T20:31:48.656Z,7.63
2023-02-08T20:34:19.006Z,5.57
2023-02-08T20:37:06.949Z,5.33
2023-02-08T20:39:36.459Z,6.83
2023-02-08T20:42:05.146Z,6.50
2023-02-08T20:44:35.117Z,6.20
2023-02-08T20:47:03.521Z,9.63
2023-02-08T20:49:32.510Z,7.17
2023-02-08T20:52:01.383Z,9.67
2023-02-08T20:54:29.990Z,7.07
2023-02-08T20:56:59.135Z,4.57
2023-02-08T20:59:27.602Z,6.73
2023-02-08T21:01:57.702Z,5.07
2023-02-08T21:04:27.189Z,14.10
2023-02-08T21:06:55.676Z,8.13
2023-02-08T21:09:24.558Z,11.77
2023-02-08T21:11:53.749Z,7.70
2023-02-08T21:14:23.607Z,9.40
2023-02-08T21:16:53.938Z,7.00
2023-02-08T21:19:24.091Z,7.97
2023-02-08T21:21:53.867Z,7.57
2023-02-08T21:24:23.992Z,4.50
2023-02-08T21:26:52.901Z,8.33
2023-02-08T21:29:21.868Z,10.33
2023-02-08T21:31:52.576Z,4.47
2023-02-08T21:34:21.970Z,4.67
2023-02-08T21:36:51.715Z,5.10
2023-02-08T21:39:20.190Z,5.33
2023-02-08T21:41:49.324Z,4.77
2023-02-08T21:44:17.761Z,16.37
2023-02-08T21:46:46.135Z,7.30
2023-02-08T21:49:32.019Z,4.70
2023-02-08T21:52:19.323Z,12.93
2023-02-08T21:54:53.590Z,4.73
2023-02-08T21:57:24.720Z,6.20
2023-02-08T21:59:55.986Z,8.00
2023-02-08T22:02:27.922Z,7.63
2023-02-08T22:04:57.823Z,4.50
2023-02-08T22:07:28.211Z,5.97
2023-02-08T22:09:56.920Z,4.80
2023-02-08T22:12:25.405Z,6.00
2023-02-08T22:14:53.735Z,5.07
2023-02-08T22:17:22.140Z,8.87
2023-02-08T22:19:50.474Z,9.23
2023-02-08T22:22:18.830Z,6.13
2023-02-08T22:24:48.567Z,7.50
2023-02-08T22:27:17.015Z,5.13
2023-02-08T22:29:45.397Z,5.00
2023-02-08T22:32:17.054Z,5.13
2023-02-08T22:34:45.664Z,5.03
2023-02-08T22:37:14.806Z,7.57
2023-02-08T22:39:43.764Z,4.63
2023-02-08T22:42:13.640Z,8.97
2023-02-08T22:44:43.484Z,6.50
2023-02-08T22:47:13.411Z,4.00
2023-02-08T22:49:42.101Z,7.60
2023-02-08T22:52:11.021Z,8.90
2023-02-08T22:54:39.878Z,5.30
2023-02-08T22:57:09.785Z,4.43
2023-02-08T22:59:40.265Z,6.17
2023-02-08T23:02:09.487Z,16.30
2023-02-08T23:04:38.541Z,6.00
2023-02-08T23:07:07.037Z,6.17
2023-02-08T23:09:35.369Z,5.10
2023-02-08T23:12:03.703Z,5.20
2023-02-08T23:14:32.901Z,5.73
2023-02-08T23:17:02.790Z,5.63
2023-02-08T23:19:31.752Z,5.97
2023-02-08T23:22:00.615Z,4.67
2023-02-08T23:24:29.833Z,7.73
2023-02-08T23:26:58.220Z,7.07
2023-02-08T23:29:27.028Z,7.07
2023-02-08T23:31:55.476Z,5.27
2023-02-08T23:34:25.276Z,6.43
2023-02-08T23:36:53.759Z,4.90
2023-02-08T23:39:22.074Z,7.90
2023-02-08T23:41:50.431Z,3.83
2023-02-08T23:44:18.806Z,4.50
2023-02-08T23:46:47.166Z,5.10
2023-02-08T23:49:15.597Z,7.47
2023-02-08T23:51:45.345Z,3.87
2023-02-08T23:54:13.777Z,4.87
2023-02-08T23:56:42.162Z,4.00
2023-02-08T23:59:12.105Z,6.23
